sensor_id;sensor_type;location;lat;lon;timestamp;P1;durP1;ratioP1;P2;durP2;ratioP2
62925;SDS011;55732;52.248;-0.844;2023-03-05T00:00:44;12.20;;;6.40;;
62925;SDS011;55732;52.248;-0.844;2023-03-05T00:03:10;9.10;;;5.70;;
62925;SDS011;55732;52.248;-0.844;2023-03-05T00:05:35;10.90;;;7.10;;
62925;SDS011;55732;52.248;-0.844;2023-03-05T00:08:01;14.50;;;6.90;;
62925;SDS011;55732;52.248;-0.844;2023-03-05T00:10:26;11.80;;;7.90;;
62925;SDS011;55732;52.248;-0.844;2023-03-05T00:12:52;13.40;;;7.80;;
62925;SDS011;55732;52.248;-0.844;2023-03-05T00:15:17;14.40;;;7.90;;
62925;SDS011;55732;52.248;-0.844;2023-03-05T00:17:43;12.50;;;8.10;;
62925;SDS011;55732;52.248;-0.844;2023-03-05T00:20:08;11.10;;;7.10;;
62925;SDS011;55732;52.248;-0.844;2023-03-05T00:22:34;12.70;;;7.80;;
62925;SDS011;55732;52.248;-0.844;2023-03-05T00:25:01;15.10;;;7.40;;
62925;SDS011;55732;52.248;-0.844;2023-03-05T00:27:27;14.40;;;6.90;;
62925;SDS011;55732;52.248;-0.844;2023-03-05T00:29:52;13.90;;;7.60;;
62925;SDS011;55732;52.248;-0.844;2023-03-05T00:32:18;13.60;;;7.80;;
62925;SDS011;55732;52.248;-0.844;2023-03-05T00:34:43;10.70;;;7.20;;
62925;SDS011;55732;52.248;-0.844;2023-03-05T00:37:08;12.50;;;7.80;;
62925;SDS011;55732;52.248;-0.844;2023-03-05T00:39:34;13.90;;;7.70;;
62925;SDS011;55732;52.248;-0.844;2023-03-05T00:42:00;11.60;;;7.10;;
62925;SDS011;55732;52.248;-0.844;2023-03-05T00:44:25;14.30;;;7.90;;
62925;SDS011;55732;52.248;-0.844;2023-03-05T00:46:50;11.60;;;7.40;;
62925;SDS011;55732;52.248;-0.844;2023-03-05T00:49:16;11.50;;;7.40;;
62925;SDS011;55732;52.248;-0.844;2023-03-05T00:51:41;9.40;;;7.10;;
62925;SDS011;55732;52.248;-0.844;2023-03-05T00:54:07;18.30;;;7.80;;
62925;SDS011;55732;52.248;-0.844;2023-03-05T00:56:32;17.70;;;8.30;;
62925;SDS011;55732;52.248;-0.844;2023-03-05T00:58:58;10.60;;;7.70;;
62925;SDS011;55732;52.248;-0.844;2023-03-05T01:01:23;11.70;;;7.40;;
62925;SDS011;55732;52.248;-0.844;2023-03-05T01:03:50;12.50;;;7.30;;
62925;SDS011;55732;52.248;-0.844;2023-03-05T01:06:16;12.00;;;7.90;;
62925;SDS011;55732;52.248;-0.844;2023-03-05T01:08:42;11.50;;;7.50;;
62925;SDS011;55732;52.248;-0.844;2023-03-05T01:11:08;12.70;;;7.70;;
62925;SDS011;55732;52.248;-0.844;2023-03-05T01:13:35;12.50;;;7.80;;
62925;SDS011;55732;52.248;-0.844;2023-03-05T01:16:01;13.90;;;8.30;;
62925;SDS011;55732;52.248;-0.844;2023-03-05T01:18:28;11.50;;;8.10;;
62925;SDS011;55732;52.248;-0.844;2023-03-05T01:20:53;10.30;;;7.40;;
62925;SDS011;55732;52.248;-0.844;2023-03-05T01:23:19;11.10;;;8.00;;
62925;SDS011;55732;52.248;-0.844;2023-03-05T01:25:44;13.60;;;9.10;;
62925;SDS011;55732;52.248;-0.844;2023-03-05T01:28:10;13.70;;;9.00;;
62925;SDS011;55732;52.248;-0.844;2023-03-05T01:30:35;13.20;;;9.00;;
62925;SDS011;55732;52.248;-0.844;2023-03-05T01:33:01;14.20;;;9.80;;
62925;SDS011;55732;52.248;-0.844;2023-03-05T01:35:28;15.00;;;9.00;;
62925;SDS011;55732;52.248;-0.844;2023-03-05T01:37:53;13.50;;;8.90;;
62925;SDS011;55732;52.248;-0.844;2023-03-05T01:40:22;14.40;;;9.00;;
62925;SDS011;55732;52.248;-0.844;2023-03-05T01:42:58;13.40;;;8.90;;
62925;SDS011;55732;52.248;-0.844;2023-03-05T01:45:26;13.60;;;8.90;;
62925;SDS011;55732;52.248;-0.844;2023-03-05T01:47:55;15.70;;;9.10;;
62925;SDS011;55732;52.248;-0.844;2023-03-05T01:50:21;16.50;;;8.90;;
62925;SDS011;55732;52.248;-0.844;2023-03-05T01:53:03;17.50;;;9.50;;
62925;SDS011;55732;52.248;-0.844;2023-03-05T01:55:31;16.90;;;10.20;;
62925;SDS011;55732;52.248;-0.844;2023-03-05T01:58:02;13.70;;;9.20;;
62925;SDS011;55732;52.248;-0.844;2023-03-05T02:00:47;12.40;;;9.00;;
62925;SDS011;55732;52.248;-0.844;2023-03-05T02:03:17;17.60;;;9.50;;
62925;SDS011;55732;52.248;-0.844;2023-03-05T02:05:43;15.80;;;9.30;;
62925;SDS011;55732;52.248;-0.844;2023-03-05T02:08:17;14.40;;;9.50;;
62925;SDS011;55732;52.248;-0.844;2023-03-05T02:10:49;14.30;;;9.90;;
62925;SDS011;55732;52.248;-0.844;2023-03-05T02:13:18;15.50;;;9.50;;
62925;SDS011;55732;52.248;-0.844;2023-03-05T02:15:46;14.10;;;9.30;;
62925;SDS011;55732;52.248;-0.844;2023-03-05T02:18:14;16.80;;;10.20;;
62925;SDS011;55732;52.248;-0.844;2023-03-05T02:20:49;15.70;;;10.20;;
62925;SDS011;55732;52.248;-0.844;2023-03-05T02:23:18;18.60;;;10.80;;
62925;SDS011;55732;52.248;-0.844;2023-03-05T02:25:45;14.50;;;9.60;;
62925;SDS011;55732;52.248;-0.844;2023-03-05T02:28:14;15.50;;;10.10;;
62925;SDS011;55732;52.248;-0.844;2023-03-05T02:30:40;18.20;;;10.10;;
62925;SDS011;55732;52.248;-0.844;2023-03-05T02:33:06;17.30;;;10.40;;
62925;SDS011;55732;52.248;-0.844;2023-03-05T02:35:31;15.60;;;11.00;;
62925;SDS011;55732;52.248;-0.844;2023-03-05T02:37:57;18.20;;;11.20;;
62925;SDS011;55732;52.248;-0.844;2023-03-05T02:40:23;16.50;;;11.10;;
62925;SDS011;55732;52.248;-0.844;2023-03-05T02:42:48;17.00;;;11.10;;
62925;SDS011;55732;52.248;-0.844;2023-03-05T02:45:14;16.90;;;11.80;;
62925;SDS011;55732;52.248;-0.844;2023-03-05T02:47:40;16.70;;;11.80;;
62925;SDS011;55732;52.248;-0.844;2023-03-05T02:50:06;18.80;;;11.60;;
62925;SDS011;55732;52.248;-0.844;2023-03-05T02:52:34;13.30;;;10.60;;
62925;SDS011;55732;52.248;-0.844;2023-03-05T02:55:00;17.90;;;10.70;;
62925;SDS011;55732;52.248;-0.844;2023-03-05T02:57:25;18.00;;;11.30;;
62925;SDS011;55732;52.248;-0.844;2023-03-05T02:59:51;17.40;;;10.60;;
62925;SDS011;55732;52.248;-0.844;2023-03-05T03:02:17;17.50;;;11.00;;
62925;SDS011;55732;52.248;-0.844;2023-03-05T03:04:42;16.00;;;10.90;;
62925;SDS011;55732;52.248;-0.844;2023-03-05T03:07:09;14.50;;;10.60;;
62925;SDS011;55732;52.248;-0.844;2023-03-05T03:09:36;14.30;;;9.80;;
62925;SDS011;55732;52.248;-0.844;2023-03-05T03:12:02;15.80;;;11.00;;
62925;SDS011;55732;52.248;-0.844;2023-03-05T03:14:35;14.60;;;11.10;;
62925;SDS011;55732;52.248;-0.844;2023-03-05T03:17:11;15.70;;;10.50;;
62925;SDS011;55732;52.248;-0.844;2023-03-05T03:19:38;14.30;;;10.40;;
62925;SDS011;55732;52.248;-0.844;2023-03-05T03:22:05;15.20;;;10.80;;
62925;SDS011;55732;52.248;-0.844;2023-03-05T03:24:32;12.70;;;10.20;;
62925;SDS011;55732;52.248;-0.844;2023-03-05T03:26:59;17.30;;;10.80;;
62925;SDS011;55732;52.248;-0.844;2023-03-05T03:29:25;17.00;;;10.90;;
62925;SDS011;55732;52.248;-0.844;2023-03-05T03:31:51;17.40;;;10.40;;
62925;SDS011;55732;52.248;-0.844;2023-03-05T03:34:16;19.10;;;11.20;;
62925;SDS011;55732;52.248;-0.844;2023-03-05T03:36:43;18.60;;;10.50;;
62925;SDS011;55732;52.248;-0.844;2023-03-05T03:39:09;14.20;;;10.50;;
62925;SDS011;55732;52.248;-0.844;2023-03-05T03:41:44;14.80;;;10.90;;
62925;SDS011;55732;52.248;-0.844;2023-03-05T03:44:12;15.60;;;10.30;;
62925;SDS011;55732;52.248;-0.844;2023-03-05T03:46:38;15.80;;;10.90;;
62925;SDS011;55732;52.248;-0.844;2023-03-05T03:49:05;23.50;;;12.60;;
62925;SDS011;55732;52.248;-0.844;2023-03-05T03:51:34;16.60;;;11.90;;
62925;SDS011;55732;52.248;-0.844;2023-03-05T03:54:00;20.00;;;11.40;;
62925;SDS011;55732;52.248;-0.844;2023-03-05T03:56:25;16.80;;;11.50;;
62925;SDS011;55732;52.248;-0.844;2023-03-05T03:58:51;17.90;;;12.00;;
62925;SDS011;55732;52.248;-0.844;2023-03-05T04:01:18;15.70;;;11.40;;
62925;SDS011;55732;52.248;-0.844;2023-03-05T04:03:45;19.20;;;11.60;;
62925;SDS011;55732;52.248;-0.844;2023-03-05T04:06:10;16.90;;;11.20;;
62925;SDS011;55732;52.248;-0.844;2023-03-05T04:08:36;18.90;;;11.60;;
62925;SDS011;55732;52.248;-0.844;2023-03-05T04:11:02;18.30;;;11.60;;
62925;SDS011;55732;52.248;-0.844;2023-03-05T04:13:28;15.60;;;10.70;;
62925;SDS011;55732;52.248;-0.844;2023-03-05T04:15:53;17.10;;;10.10;;
62925;SDS011;55732;52.248;-0.844;2023-03-05T04:18:19;14.00;;;10.70;;
62925;SDS011;55732;52.248;-0.844;2023-03-05T04:20:44;18.10;;;11.10;;
62925;SDS011;55732;52.248;-0.844;2023-03-05T04:23:10;16.80;;;10.70;;
62925;SDS011;55732;52.248;-0.844;2023-03-05T04:25:35;16.80;;;10.00;;
62925;SDS011;55732;52.248;-0.844;2023-03-05T04:28:01;20.20;;;10.90;;
62925;SDS011;55732;52.248;-0.844;2023-03-05T04:30:26;16.40;;;10.20;;
62925;SDS011;55732;52.248;-0.844;2023-03-05T04:32:52;18.00;;;10.40;;
62925;SDS011;55732;52.248;-0.844;2023-03-05T04:35:17;17.10;;;10.30;;
62925;SDS011;55732;52.248;-0.844;2023-03-05T04:37:43;15.90;;;9.70;;
62925;SDS011;55732;52.248;-0.844;2023-03-05T04:40:08;17.20;;;10.00;;
62925;SDS011;55732;52.248;-0.844;2023-03-05T04:42:35;14.00;;;10.00;;
62925;SDS011;55732;52.248;-0.844;2023-03-05T04:45:01;13.30;;;9.00;;
62925;SDS011;55732;52.248;-0.844;2023-03-05T04:47:27;14.10;;;8.60;;
62925;SDS011;55732;52.248;-0.844;2023-03-05T04:49:52;17.70;;;12.10;;
62925;SDS011;55732;52.248;-0.844;2023-03-05T04:52:18;20.10;;;12.10;;
62925;SDS011;55732;52.248;-0.844;2023-03-05T04:54:43;20.80;;;12.00;;
62925;SDS011;55732;52.248;-0.844;2023-03-05T04:57:09;20.00;;;10.50;;
62925;SDS011;55732;52.248;-0.844;2023-03-05T04:59:35;14.60;;;10.30;;
62925;SDS011;55732;52.248;-0.844;2023-03-05T05:02:01;16.90;;;10.90;;
62925;SDS011;55732;52.248;-0.844;2023-03-05T05:04:27;15.80;;;10.40;;
62925;SDS011;55732;52.248;-0.844;2023-03-05T05:06:56;14.70;;;10.60;;
62925;SDS011;55732;52.248;-0.844;2023-03-05T05:09:22;14.20;;;10.80;;
62925;SDS011;55732;52.248;-0.844;2023-03-05T05:11:48;14.20;;;9.20;;
62925;SDS011;55732;52.248;-0.844;2023-03-05T05:14:14;13.50;;;10.10;;
62925;SDS011;55732;52.248;-0.844;2023-03-05T05:16:39;13.40;;;9.30;;
62925;SDS011;55732;52.248;-0.844;2023-03-05T05:19:04;14.50;;;9.40;;
62925;SDS011;55732;52.248;-0.844;2023-03-05T05:21:30;14.90;;;10.40;;
62925;SDS011;55732;52.248;-0.844;2023-03-05T05:23:56;14.90;;;10.50;;
62925;SDS011;55732;52.248;-0.844;2023-03-05T05:26:21;16.70;;;11.20;;
62925;SDS011;55732;52.248;-0.844;2023-03-05T05:28:47;14.30;;;10.80;;
62925;SDS011;55732;52.248;-0.844;2023-03-05T05:31:13;13.20;;;10.40;;
62925;SDS011;55732;52.248;-0.844;2023-03-05T05:33:40;17.60;;;10.70;;
62925;SDS011;55732;52.248;-0.844;2023-03-05T05:36:06;16.80;;;11.10;;
62925;SDS011;55732;52.248;-0.844;2023-03-05T05:38:35;14.30;;;10.10;;
62925;SDS011;55732;52.248;-0.844;2023-03-05T05:41:04;13.90;;;10.50;;
62925;SDS011;55732;52.248;-0.844;2023-03-05T05:43:31;15.60;;;11.00;;
62925;SDS011;55732;52.248;-0.844;2023-03-05T05:45:58;15.20;;;10.40;;
62925;SDS011;55732;52.248;-0.844;2023-03-05T05:48:25;15.60;;;10.70;;
62925;SDS011;55732;52.248;-0.844;2023-03-05T05:50:52;21.30;;;13.00;;
62925;SDS011;55732;52.248;-0.844;2023-03-05T05:53:17;20.40;;;12.50;;
62925;SDS011;55732;52.248;-0.844;2023-03-05T05:55:42;15.80;;;12.30;;
62925;SDS011;55732;52.248;-0.844;2023-03-05T05:58:08;20.80;;;12.30;;
62925;SDS011;55732;52.248;-0.844;2023-03-05T06:00:33;19.70;;;13.10;;
62925;SDS011;55732;52.248;-0.844;2023-03-05T06:02:58;20.30;;;11.10;;
62925;SDS011;55732;52.248;-0.844;2023-03-05T06:05:24;15.10;;;11.20;;
62925;SDS011;55732;52.248;-0.844;2023-03-05T06:07:49;18.00;;;10.80;;
62925;SDS011;55732;52.248;-0.844;2023-03-05T06:10:15;16.30;;;11.70;;
62925;SDS011;55732;52.248;-0.844;2023-03-05T06:12:40;15.40;;;11.10;;
62925;SDS011;55732;52.248;-0.844;2023-03-05T06:15:06;16.40;;;11.50;;
62925;SDS011;55732;52.248;-0.844;2023-03-05T06:17:32;12.70;;;9.30;;
62925;SDS011;55732;52.248;-0.844;2023-03-05T06:19:57;16.50;;;11.50;;
62925;SDS011;55732;52.248;-0.844;2023-03-05T06:22:23;14.60;;;10.50;;
62925;SDS011;55732;52.248;-0.844;2023-03-05T06:24:48;15.40;;;12.00;;
62925;SDS011;55732;52.248;-0.844;2023-03-05T06:27:13;16.80;;;11.10;;
62925;SDS011;55732;52.248;-0.844;2023-03-05T06:29:39;16.70;;;11.10;;
62925;SDS011;55732;52.248;-0.844;2023-03-05T06:32:04;14.80;;;10.80;;
62925;SDS011;55732;52.248;-0.844;2023-03-05T06:34:30;18.90;;;11.70;;
62925;SDS011;55732;52.248;-0.844;2023-03-05T06:36:56;15.80;;;11.70;;
62925;SDS011;55732;52.248;-0.844;2023-03-05T06:39:21;17.80;;;10.90;;
62925;SDS011;55732;52.248;-0.844;2023-03-05T06:41:49;13.90;;;10.80;;
62925;SDS011;55732;52.248;-0.844;2023-03-05T06:44:16;15.60;;;11.90;;
62925;SDS011;55732;52.248;-0.844;2023-03-05T06:46:41;18.20;;;12.00;;
62925;SDS011;55732;52.248;-0.844;2023-03-05T06:49:07;18.50;;;11.60;;
62925;SDS011;55732;52.248;-0.844;2023-03-05T06:51:34;16.50;;;11.10;;
62925;SDS011;55732;52.248;-0.844;2023-03-05T06:54:03;22.10;;;13.80;;
62925;SDS011;55732;52.248;-0.844;2023-03-05T06:56:30;18.20;;;13.40;;
62925;SDS011;55732;52.248;-0.844;2023-03-05T06:58:56;22.00;;;13.50;;
62925;SDS011;55732;52.248;-0.844;2023-03-05T07:01:22;22.50;;;14.40;;
62925;SDS011;55732;52.248;-0.844;2023-03-05T07:03:48;21.70;;;13.50;;
62925;SDS011;55732;52.248;-0.844;2023-03-05T07:08:41;25.00;;;13.50;;
62925;SDS011;55732;52.248;-0.844;2023-03-05T07:11:09;20.40;;;14.00;;
62925;SDS011;55732;52.248;-0.844;2023-03-05T07:13:40;18.10;;;12.70;;
62925;SDS011;55732;52.248;-0.844;2023-03-05T07:16:08;20.10;;;12.80;;
62925;SDS011;55732;52.248;-0.844;2023-03-05T07:18:35;17.90;;;11.30;;
62925;SDS011;55732;52.248;-0.844;2023-03-05T07:21:04;17.80;;;13.60;;
62925;SDS011;55732;52.248;-0.844;2023-03-05T07:23:31;17.10;;;12.90;;
62925;SDS011;55732;52.248;-0.844;2023-03-05T07:26:01;17.10;;;11.70;;
62925;SDS011;55732;52.248;-0.844;2023-03-05T07:28:27;17.10;;;11.90;;
62925;SDS011;55732;52.248;-0.844;2023-03-05T07:30:57;18.50;;;11.80;;
62925;SDS011;55732;52.248;-0.844;2023-03-05T07:33:27;14.70;;;11.10;;
62925;SDS011;55732;52.248;-0.844;2023-03-05T07:35:53;15.00;;;11.90;;
62925;SDS011;55732;52.248;-0.844;2023-03-05T07:38:20;13.10;;;10.20;;
62925;SDS011;55732;52.248;-0.844;2023-03-05T07:40:46;15.00;;;11.50;;
62925;SDS011;55732;52.248;-0.844;2023-03-05T07:43:11;14.00;;;10.50;;
62925;SDS011;55732;52.248;-0.844;2023-03-05T07:45:40;16.00;;;11.00;;
62925;SDS011;55732;52.248;-0.844;2023-03-05T07:48:07;14.30;;;11.20;;
62925;SDS011;55732;52.248;-0.844;2023-03-05T07:50:37;16.50;;;10.70;;
62925;SDS011;55732;52.248;-0.844;2023-03-05T07:53:02;15.60;;;11.90;;
62925;SDS011;55732;52.248;-0.844;2023-03-05T07:55:27;14.80;;;11.00;;
62925;SDS011;55732;52.248;-0.844;2023-03-05T07:57:53;16.70;;;11.70;;
62925;SDS011;55732;52.248;-0.844;2023-03-05T08:00:19;15.20;;;11.40;;
62925;SDS011;55732;52.248;-0.844;2023-03-05T08:02:45;19.20;;;11.50;;
62925;SDS011;55732;52.248;-0.844;2023-03-05T08:05:11;15.00;;;11.40;;
62925;SDS011;55732;52.248;-0.844;2023-03-05T08:07:36;19.60;;;12.40;;
62925;SDS011;55732;52.248;-0.844;2023-03-05T08:10:02;18.20;;;12.20;;
62925;SDS011;55732;52.248;-0.844;2023-03-05T08:12:28;18.30;;;12.00;;
62925;SDS011;55732;52.248;-0.844;2023-03-05T08:14:53;14.10;;;10.90;;
62925;SDS011;55732;52.248;-0.844;2023-03-05T08:17:20;17.80;;;10.80;;
62925;SDS011;55732;52.248;-0.844;2023-03-05T08:19:45;14.50;;;10.40;;
62925;SDS011;55732;52.248;-0.844;2023-03-05T08:22:11;12.80;;;9.90;;
62925;SDS011;55732;52.248;-0.844;2023-03-05T08:24:36;14.60;;;10.20;;
62925;SDS011;55732;52.248;-0.844;2023-03-05T08:27:02;18.40;;;10.70;;
62925;SDS011;55732;52.248;-0.844;2023-03-05T08:29:27;16.40;;;10.20;;
62925;SDS011;55732;52.248;-0.844;2023-03-05T08:31:53;14.30;;;10.50;;
62925;SDS011;55732;52.248;-0.844;2023-03-05T08:34:19;15.70;;;10.20;;
62925;SDS011;55732;52.248;-0.844;2023-03-05T08:36:45;13.60;;;9.80;;
62925;SDS011;55732;52.248;-0.844;2023-03-05T08:39:11;14.20;;;10.50;;
62925;SDS011;55732;52.248;-0.844;2023-03-05T08:41:37;14.00;;;9.60;;
62925;SDS011;55732;52.248;-0.844;2023-03-05T08:44:03;13.00;;;9.70;;
62925;SDS011;55732;52.248;-0.844;2023-03-05T08:46:28;14.80;;;10.30;;
62925;SDS011;55732;52.248;-0.844;2023-03-05T08:49:09;13.00;;;10.00;;
62925;SDS011;55732;52.248;-0.844;2023-03-05T08:51:35;10.70;;;8.40;;
62925;SDS011;55732;52.248;-0.844;2023-03-05T08:54:01;13.20;;;9.40;;
62925;SDS011;55732;52.248;-0.844;2023-03-05T08:56:31;15.30;;;9.40;;
62925;SDS011;55732;52.248;-0.844;2023-03-05T08:58:57;12.10;;;8.90;;
62925;SDS011;55732;52.248;-0.844;2023-03-05T09:01:23;15.20;;;9.70;;
62925;SDS011;55732;52.248;-0.844;2023-03-05T09:03:49;13.30;;;9.60;;
62925;SDS011;55732;52.248;-0.844;2023-03-05T09:06:14;13.10;;;8.70;;
62925;SDS011;55732;52.248;-0.844;2023-03-05T09:08:40;14.40;;;9.60;;
62925;SDS011;55732;52.248;-0.844;2023-03-05T09:11:07;12.30;;;9.30;;
62925;SDS011;55732;52.248;-0.844;2023-03-05T09:13:34;12.90;;;9.40;;
62925;SDS011;55732;52.248;-0.844;2023-03-05T09:16:01;12.50;;;9.20;;
62925;SDS011;55732;52.248;-0.844;2023-03-05T09:18:28;13.50;;;9.00;;
62925;SDS011;55732;52.248;-0.844;2023-03-05T09:20:55;11.40;;;8.80;;
62925;SDS011;55732;52.248;-0.844;2023-03-05T09:23:21;10.80;;;9.20;;
62925;SDS011;55732;52.248;-0.844;2023-03-05T09:25:47;13.50;;;9.50;;
62925;SDS011;55732;52.248;-0.844;2023-03-05T09:28:13;14.90;;;9.10;;
62925;SDS011;55732;52.248;-0.844;2023-03-05T09:30:39;15.10;;;9.40;;
62925;SDS011;55732;52.248;-0.844;2023-03-05T09:33:05;11.10;;;8.60;;
62925;SDS011;55732;52.248;-0.844;2023-03-05T09:35:32;11.20;;;8.70;;
62925;SDS011;55732;52.248;-0.844;2023-03-05T09:37:59;12.90;;;8.10;;
62925;SDS011;55732;52.248;-0.844;2023-03-05T09:40:24;12.90;;;8.60;;
62925;SDS011;55732;52.248;-0.844;2023-03-05T09:43:07;15.30;;;8.90;;
62925;SDS011;55732;52.248;-0.844;2023-03-05T09:51:14;12.30;;;8.80;;
62925;SDS011;55732;52.248;-0.844;2023-03-05T09:54:01;9.50;;;7.40;;
62925;SDS011;55732;52.248;-0.844;2023-03-05T09:56:35;9.90;;;8.10;;
62925;SDS011;55732;52.248;-0.844;2023-03-05T09:59:18;10.80;;;7.40;;
62925;SDS011;55732;52.248;-0.844;2023-03-05T10:01:51;10.10;;;7.10;;
62925;SDS011;55732;52.248;-0.844;2023-03-05T10:04:18;9.40;;;7.80;;
62925;SDS011;55732;52.248;-0.844;2023-03-05T10:15:07;12.30;;;8.10;;
62925;SDS011;55732;52.248;-0.844;2023-03-05T10:28:56;9.10;;;7.90;;
62925;SDS011;55732;52.248;-0.844;2023-03-05T10:36:37;7.90;;;5.90;;
62925;SDS011;55732;52.248;-0.844;2023-03-05T10:44:51;8.60;;;7.20;;
62925;SDS011;55732;52.248;-0.844;2023-03-05T10:47:24;11.60;;;7.50;;
62925;SDS011;55732;52.248;-0.844;2023-03-05T10:49:55;9.30;;;6.00;;
62925;SDS011;55732;52.248;-0.844;2023-03-05T10:52:24;12.30;;;6.20;;
62925;SDS011;55732;52.248;-0.844;2023-03-05T10:54:52;6.10;;;4.30;;
62925;SDS011;55732;52.248;-0.844;2023-03-05T10:59:50;8.10;;;5.70;;
62925;SDS011;55732;52.248;-0.844;2023-03-05T11:02:23;6.20;;;5.50;;
62925;SDS011;55732;52.248;-0.844;2023-03-05T11:04:49;7.10;;;4.60;;
62925;SDS011;55732;52.248;-0.844;2023-03-05T11:09:42;6.60;;;4.80;;
62925;SDS011;55732;52.248;-0.844;2023-03-05T11:12:29;5.30;;;4.10;;
62925;SDS011;55732;52.248;-0.844;2023-03-05T11:17:34;6.10;;;4.40;;
62925;SDS011;55732;52.248;-0.844;2023-03-05T11:28:26;8.30;;;4.90;;
62925;SDS011;55732;52.248;-0.844;2023-03-05T11:30:59;5.90;;;5.00;;
62925;SDS011;55732;52.248;-0.844;2023-03-05T11:39:14;5.30;;;4.40;;
62925;SDS011;55732;52.248;-0.844;2023-03-05T11:41:46;5.70;;;5.00;;
62925;SDS011;55732;52.248;-0.844;2023-03-05T11:44:13;5.80;;;3.60;;
62925;SDS011;55732;52.248;-0.844;2023-03-05T11:46:49;6.90;;;5.00;;
62925;SDS011;55732;52.248;-0.844;2023-03-05T11:49:19;6.20;;;4.60;;
62925;SDS011;55732;52.248;-0.844;2023-03-05T11:52:03;6.40;;;4.70;;
62925;SDS011;55732;52.248;-0.844;2023-03-05T11:54:46;6.60;;;4.80;;
62925;SDS011;55732;52.248;-0.844;2023-03-05T11:57:20;8.90;;;5.00;;
62925;SDS011;55732;52.248;-0.844;2023-03-05T11:59:49;5.20;;;4.00;;
62925;SDS011;55732;52.248;-0.844;2023-03-05T12:02:23;6.60;;;4.30;;
62925;SDS011;55732;52.248;-0.844;2023-03-05T12:04:50;6.80;;;4.60;;
62925;SDS011;55732;52.248;-0.844;2023-03-05T12:07:18;7.80;;;4.70;;
62925;SDS011;55732;52.248;-0.844;2023-03-05T12:09:51;7.60;;;4.60;;
62925;SDS011;55732;52.248;-0.844;2023-03-05T12:12:23;7.30;;;5.50;;
62925;SDS011;55732;52.248;-0.844;2023-03-05T12:17:36;6.50;;;4.80;;
62925;SDS011;55732;52.248;-0.844;2023-03-05T12:23:26;5.10;;;4.30;;
62925;SDS011;55732;52.248;-0.844;2023-03-05T12:25:56;7.00;;;5.30;;
62925;SDS011;55732;52.248;-0.844;2023-03-05T12:30:56;7.20;;;4.80;;
62925;SDS011;55732;52.248;-0.844;2023-03-05T12:33:57;6.00;;;4.60;;
62925;SDS011;55732;52.248;-0.844;2023-03-05T12:46:29;13.50;;;4.40;;
62925;SDS011;55732;52.248;-0.844;2023-03-05T12:48:57;5.60;;;4.30;;
62925;SDS011;55732;52.248;-0.844;2023-03-05T12:51:36;6.00;;;4.10;;
62925;SDS011;55732;52.248;-0.844;2023-03-05T12:56:54;6.80;;;4.50;;
62925;SDS011;55732;52.248;-0.844;2023-03-05T12:59:31;5.00;;;3.80;;
62925;SDS011;55732;52.248;-0.844;2023-03-05T13:02:38;8.10;;;4.80;;
62925;SDS011;55732;52.248;-0.844;2023-03-05T13:05:26;7.10;;;4.90;;
62925;SDS011;55732;52.248;-0.844;2023-03-05T13:08:08;8.50;;;4.80;;
62925;SDS011;55732;52.248;-0.844;2023-03-05T13:10:42;7.10;;;4.00;;
62925;SDS011;55732;52.248;-0.844;2023-03-05T13:13:16;6.60;;;4.10;;
62925;SDS011;55732;52.248;-0.844;2023-03-05T13:15:44;5.60;;;4.10;;
62925;SDS011;55732;52.248;-0.844;2023-03-05T13:18:17;4.70;;;3.80;;
62925;SDS011;55732;52.248;-0.844;2023-03-05T13:20:59;4.90;;;3.60;;
62925;SDS011;55732;52.248;-0.844;2023-03-05T13:23:29;5.10;;;3.30;;
62925;SDS011;55732;52.248;-0.844;2023-03-05T13:28:28;8.70;;;4.80;;
62925;SDS011;55732;52.248;-0.844;2023-03-05T13:30:59;5.30;;;4.20;;
62925;SDS011;55732;52.248;-0.844;2023-03-05T13:33:31;5.60;;;3.80;;
62925;SDS011;55732;52.248;-0.844;2023-03-05T13:35:59;5.10;;;3.60;;
62925;SDS011;55732;52.248;-0.844;2023-03-05T13:38:36;4.30;;;3.10;;
62925;SDS011;55732;52.248;-0.844;2023-03-05T13:44:16;6.00;;;3.60;;
62925;SDS011;55732;52.248;-0.844;2023-03-05T13:49:14;5.90;;;3.60;;
62925;SDS011;55732;52.248;-0.844;2023-03-05T13:51:42;6.00;;;3.70;;
62925;SDS011;55732;52.248;-0.844;2023-03-05T13:54:08;5.00;;;3.50;;
62925;SDS011;55732;52.248;-0.844;2023-03-05T13:56:47;6.70;;;3.50;;
62925;SDS011;55732;52.248;-0.844;2023-03-05T13:59:25;4.70;;;3.40;;
62925;SDS011;55732;52.248;-0.844;2023-03-05T14:01:59;5.20;;;3.60;;
62925;SDS011;55732;52.248;-0.844;2023-03-05T14:04:45;8.00;;;4.70;;
62925;SDS011;55732;52.248;-0.844;2023-03-05T14:09:51;4.30;;;3.60;;
62925;SDS011;55732;52.248;-0.844;2023-03-05T14:14:58;6.00;;;3.90;;
62925;SDS011;55732;52.248;-0.844;2023-03-05T14:19:52;4.30;;;3.30;;
62925;SDS011;55732;52.248;-0.844;2023-03-05T14:22:42;4.40;;;3.30;;
62925;SDS011;55732;52.248;-0.844;2023-03-05T14:30:46;5.20;;;3.50;;
62925;SDS011;55732;52.248;-0.844;2023-03-05T14:33:13;6.50;;;3.80;;
62925;SDS011;55732;52.248;-0.844;2023-03-05T14:35:47;11.40;;;6.50;;
62925;SDS011;55732;52.248;-0.844;2023-03-05T14:38:19;11.50;;;5.40;;
62925;SDS011;55732;52.248;-0.844;2023-03-05T14:40:48;7.40;;;4.50;;
62925;SDS011;55732;52.248;-0.844;2023-03-05T14:43:14;7.60;;;4.30;;
62925;SDS011;55732;52.248;-0.844;2023-03-05T14:45:41;5.80;;;3.50;;
62925;SDS011;55732;52.248;-0.844;2023-03-05T14:48:09;4.90;;;3.60;;
62925;SDS011;55732;52.248;-0.844;2023-03-05T14:50:40;6.10;;;3.80;;
62925;SDS011;55732;52.248;-0.844;2023-03-05T14:53:07;5.90;;;3.00;;
62925;SDS011;55732;52.248;-0.844;2023-03-05T14:55:38;4.90;;;3.50;;
62925;SDS011;55732;52.248;-0.844;2023-03-05T15:00:36;5.00;;;3.10;;
62925;SDS011;55732;52.248;-0.844;2023-03-05T15:03:02;4.50;;;3.30;;
62925;SDS011;55732;52.248;-0.844;2023-03-05T15:05:28;6.30;;;3.00;;
62925;SDS011;55732;52.248;-0.844;2023-03-05T15:07:56;6.80;;;3.50;;
62925;SDS011;55732;52.248;-0.844;2023-03-05T15:10:22;7.40;;;3.40;;
62925;SDS011;55732;52.248;-0.844;2023-03-05T15:15:17;5.80;;;3.50;;
62925;SDS011;55732;52.248;-0.844;2023-03-05T15:17:45;5.40;;;3.20;;
62925;SDS011;55732;52.248;-0.844;2023-03-05T15:20:16;5.70;;;3.20;;
62925;SDS011;55732;52.248;-0.844;2023-03-05T15:22:44;4.90;;;3.40;;
62925;SDS011;55732;52.248;-0.844;2023-03-05T15:25:10;4.30;;;3.20;;
62925;SDS011;55732;52.248;-0.844;2023-03-05T15:27:36;5.80;;;3.60;;
62925;SDS011;55732;52.248;-0.844;2023-03-05T15:30:02;4.00;;;3.30;;
62925;SDS011;55732;52.248;-0.844;2023-03-05T15:32:29;5.20;;;3.10;;
62925;SDS011;55732;52.248;-0.844;2023-03-05T15:34:55;5.00;;;3.40;;
62925;SDS011;55732;52.248;-0.844;2023-03-05T15:37:22;5.00;;;3.70;;
62925;SDS011;55732;52.248;-0.844;2023-03-05T15:39:49;6.30;;;3.60;;
62925;SDS011;55732;52.248;-0.844;2023-03-05T15:42:15;5.30;;;3.30;;
62925;SDS011;55732;52.248;-0.844;2023-03-05T15:44:40;5.10;;;3.50;;
62925;SDS011;55732;52.248;-0.844;2023-03-05T15:47:06;5.30;;;3.10;;
62925;SDS011;55732;52.248;-0.844;2023-03-05T15:49:32;7.00;;;3.20;;
62925;SDS011;55732;52.248;-0.844;2023-03-05T15:51:58;5.40;;;3.80;;
62925;SDS011;55732;52.248;-0.844;2023-03-05T15:54:23;8.80;;;4.20;;
62925;SDS011;55732;52.248;-0.844;2023-03-05T15:56:52;5.40;;;3.90;;
62925;SDS011;55732;52.248;-0.844;2023-03-05T15:59:18;5.90;;;3.70;;
62925;SDS011;55732;52.248;-0.844;2023-03-05T16:01:48;5.80;;;3.80;;
62925;SDS011;55732;52.248;-0.844;2023-03-05T16:04:15;7.20;;;4.10;;
62925;SDS011;55732;52.248;-0.844;2023-03-05T16:06:43;9.40;;;5.30;;
62925;SDS011;55732;52.248;-0.844;2023-03-05T16:09:11;5.30;;;3.70;;
62925;SDS011;55732;52.248;-0.844;2023-03-05T16:11:38;5.50;;;3.30;;
62925;SDS011;55732;52.248;-0.844;2023-03-05T16:14:12;5.50;;;3.40;;